sensor_id;sensor_type;location;lat;lon;timestamp;temperature;humidity
792;DHT22;379;49.022;12.148;2023-08-24T00:01:56;17.90;99.90
792;DHT22;379;49.022;12.148;2023-08-24T00:04:23;17.90;99.90
792;DHT22;379;49.022;12.148;2023-08-24T00:06:49;17.90;99.90
792;DHT22;379;49.022;12.148;2023-08-24T00:09:17;17.90;99.90
792;DHT22;379;49.022;12.148;2023-08-24T00:11:44;17.80;99.90
792;DHT22;379;49.022;12.148;2023-08-24T00:14:12;17.80;99.90
792;DHT22;379;49.022;12.148;2023-08-24T00:16:39;17.80;99.90
792;DHT22;379;49.022;12.148;2023-08-24T00:19:06;17.80;99.90
792;DHT22;379;49.022;12.148;2023-08-24T00:21:33;17.80;99.90
792;DHT22;379;49.022;12.148;2023-08-24T00:24:00;17.80;99.90
792;DHT22;379;49.022;12.148;2023-08-24T00:26:27;17.80;99.90
792;DHT22;379;49.022;12.148;2023-08-24T00:28:53;17.80;99.90
792;DHT22;379;49.022;12.148;2023-08-24T00:31:22;17.80;99.90
792;DHT22;379;49.022;12.148;2023-08-24T00:33:48;17.80;99.90
792;DHT22;379;49.022;12.148;2023-08-24T00:36:16;17.70;99.90
792;DHT22;379;49.022;12.148;2023-08-24T00:38:44;17.70;99.90
792;DHT22;379;49.022;12.148;2023-08-24T00:41:16;17.70;99.90
792;DHT22;379;49.022;12.148;2023-08-24T00:43:43;17.70;99.90
792;DHT22;379;49.022;12.148;2023-08-24T00:46:09;17.70;99.90
792;DHT22;379;49.022;12.148;2023-08-24T00:48:38;17.70;99.90
792;DHT22;379;49.022;12.148;2023-08-24T00:51:04;17.60;99.90
792;DHT22;379;49.022;12.148;2023-08-24T00:53:31;17.60;99.90
792;DHT22;379;49.022;12.148;2023-08-24T00:55:59;17.60;99.90
792;DHT22;379;49.022;12.148;2023-08-24T00:58:27;17.50;99.90
792;DHT22;379;49.022;12.148;2023-08-24T01:00:54;17.50;99.90
792;DHT22;379;49.022;12.148;2023-08-24T01:03:22;17.40;99.90
792;DHT22;379;49.022;12.148;2023-08-24T01:05:51;17.40;99.90
792;DHT22;379;49.022;12.148;2023-08-24T01:08:18;17.30;99.90
792;DHT22;379;49.022;12.148;2023-08-24T01:10:50;17.30;99.90
792;DHT22;379;49.022;12.148;2023-08-24T01:13:23;17.30;99.90
792;DHT22;379;49.022;12.148;2023-08-24T01:15:59;17.30;99.90
792;DHT22;379;49.022;12.148;2023-08-24T01:18:28;17.20;99.90
792;DHT22;379;49.022;12.148;2023-08-24T01:20:58;17.20;99.90
792;DHT22;379;49.022;12.148;2023-08-24T01:23:36;17.20;99.90
792;DHT22;379;49.022;12.148;2023-08-24T01:26:11;17.10;99.90
792;DHT22;379;49.022;12.148;2023-08-24T01:28:40;17.10;99.90
792;DHT22;379;49.022;12.148;2023-08-24T01:31:08;17.10;99.90
792;DHT22;379;49.022;12.148;2023-08-24T01:33:35;17.00;99.90
792;DHT22;379;49.022;12.148;2023-08-24T01:36:02;16.90;99.90
792;DHT22;379;49.022;12.148;2023-08-24T01:38:30;16.80;99.90
792;DHT22;379;49.022;12.148;2023-08-24T01:41:01;16.80;99.90
792;DHT22;379;49.022;12.148;2023-08-24T01:43:33;16.80;99.90
792;DHT22;379;49.022;12.148;2023-08-24T01:46:04;16.80;99.90
792;DHT22;379;49.022;12.148;2023-08-24T01:48:31;16.80;99.90
792;DHT22;379;49.022;12.148;2023-08-24T01:51:00;16.70;99.90
792;DHT22;379;49.022;12.148;2023-08-24T01:53:29;16.80;99.90
792;DHT22;379;49.022;12.148;2023-08-24T01:55:56;16.80;99.90
792;DHT22;379;49.022;12.148;2023-08-24T01:58:23;16.80;99.90
792;DHT22;379;49.022;12.148;2023-08-24T02:00:51;16.80;99.90
792;DHT22;379;49.022;12.148;2023-08-24T02:03:18;16.80;99.90
792;DHT22;379;49.022;12.148;2023-08-24T02:05:45;16.80;99.90
792;DHT22;379;49.022;12.148;2023-08-24T02:08:12;16.80;99.90
792;DHT22;379;49.022;12.148;2023-08-24T02:10:38;16.80;99.90
792;DHT22;379;49.022;12.148;2023-08-24T02:13:05;16.80;99.90
792;DHT22;379;49.022;12.148;2023-08-24T02:15:32;16.80;99.90
792;DHT22;379;49.022;12.148;2023-08-24T02:18:00;16.80;99.90
792;DHT22;379;49.022;12.148;2023-08-24T02:20:27;16.90;99.90
792;DHT22;379;49.022;12.148;2023-08-24T02:22:53;16.80;99.90
792;DHT22;379;49.022;12.148;2023-08-24T02:25:20;16.80;99.90
792;DHT22;379;49.022;12.148;2023-08-24T02:27:47;16.80;99.90
792;DHT22;379;49.022;12.148;2023-08-24T02:30:14;16.80;99.90
792;DHT22;379;49.022;12.148;2023-08-24T02:32:41;16.80;99.90
792;DHT22;379;49.022;12.148;2023-08-24T02:35:09;16.80;99.90
792;DHT22;379;49.022;12.148;2023-08-24T02:37:36;16.70;99.90
792;DHT22;379;49.022;12.148;2023-08-24T02:40:03;16.60;99.90
792;DHT22;379;49.022;12.148;2023-08-24T02:42:31;16.60;99.90
792;DHT22;379;49.022;12.148;2023-08-24T02:44:58;16.70;99.90
792;DHT22;379;49.022;12.148;2023-08-24T02:47:25;16.70;99.90
792;DHT22;379;49.022;12.148;2023-08-24T02:49:52;16.70;99.90
792;DHT22;379;49.022;12.148;2023-08-24T02:52:21;16.70;99.90
792;DHT22;379;49.022;12.148;2023-08-24T02:54:48;16.70;99.90
792;DHT22;379;49.022;12.148;2023-08-24T02:57:14;16.70;99.90
792;DHT22;379;49.022;12.148;2023-08-24T02:59:41;16.70;99.90
792;DHT22;379;49.022;12.148;2023-08-24T03:02:10;16.70;99.90
792;DHT22;379;49.022;12.148;2023-08-24T03:04:36;16.70;99.90
792;DHT22;379;49.022;12.148;2023-08-24T03:07:03;16.60;99.90
792;DHT22;379;49.022;12.148;2023-08-24T03:09:34;16.60;99.90
792;DHT22;379;49.022;12.148;2023-08-24T03:12:01;16.60;99.90
792;DHT22;379;49.022;12.148;2023-08-24T03:14:28;16.50;99.90
792;DHT22;379;49.022;12.148;2023-08-24T03:16:54;16.50;99.90
792;DHT22;379;49.022;12.148;2023-08-24T03:19:21;16.50;99.90
792;DHT22;379;49.022;12.148;2023-08-24T03:21:48;16.30;99.90
792;DHT22;379;49.022;12.148;2023-08-24T03:24:15;16.30;99.90
792;DHT22;379;49.022;12.148;2023-08-24T03:26:43;16.20;99.90
792;DHT22;379;49.022;12.148;2023-08-24T03:29:10;16.10;99.90
792;DHT22;379;49.022;12.148;2023-08-24T03:31:36;16.10;99.90
792;DHT22;379;49.022;12.148;2023-08-24T03:34:03;16.10;99.90
792;DHT22;379;49.022;12.148;2023-08-24T03:36:31;16.10;99.90
792;DHT22;379;49.022;12.148;2023-08-24T03:38:57;16.10;99.90
792;DHT22;379;49.022;12.148;2023-08-24T03:41:24;16.20;99.90
792;DHT22;379;49.022;12.148;2023-08-24T03:43:52;16.20;99.90
792;DHT22;379;49.022;12.148;2023-08-24T03:46:19;16.20;99.90
792;DHT22;379;49.022;12.148;2023-08-24T03:48:45;16.20;99.90
792;DHT22;379;49.022;12.148;2023-08-24T03:51:12;16.20;99.90
792;DHT22;379;49.022;12.148;2023-08-24T03:53:39;16.10;99.90
792;DHT22;379;49.022;12.148;2023-08-24T03:56:06;16.10;99.90
792;DHT22;379;49.022;12.148;2023-08-24T03:58:32;16.10;99.90
792;DHT22;379;49.022;12.148;2023-08-24T04:01:00;16.00;99.90
792;DHT22;379;49.022;12.148;2023-08-24T04:03:27;16.00;99.90
792;DHT22;379;49.022;12.148;2023-08-24T04:05:54;16.00;99.90
792;DHT22;379;49.022;12.148;2023-08-24T04:08:21;16.00;99.90
792;DHT22;379;49.022;12.148;2023-08-24T04:10:48;16.00;99.90
792;DHT22;379;49.022;12.148;2023-08-24T04:13:14;16.00;99.90
792;DHT22;379;49.022;12.148;2023-08-24T04:15:41;16.00;99.90
792;DHT22;379;49.022;12.148;2023-08-24T04:18:09;16.00;99.90
792;DHT22;379;49.022;12.148;2023-08-24T04:20:36;16.00;99.90
792;DHT22;379;49.022;12.148;2023-08-24T04:23:03;16.00;99.90
792;DHT22;379;49.022;12.148;2023-08-24T04:25:30;15.90;99.90
792;DHT22;379;49.022;12.148;2023-08-24T04:27:57;15.90;99.90
792;DHT22;379;49.022;12.148;2023-08-24T04:30:23;15.90;99.90
792;DHT22;379;49.022;12.148;2023-08-24T04:32:50;15.90;99.90
792;DHT22;379;49.022;12.148;2023-08-24T04:35:18;15.90;99.90
792;DHT22;379;49.022;12.148;2023-08-24T04:37:45;15.90;99.90
792;DHT22;379;49.022;12.148;2023-08-24T04:40:12;15.90;99.90
792;DHT22;379;49.022;12.148;2023-08-24T04:42:39;16.00;99.90
792;DHT22;379;49.022;12.148;2023-08-24T04:45:06;16.00;99.90
792;DHT22;379;49.022;12.148;2023-08-24T04:47:33;16.10;99.90
792;DHT22;379;49.022;12.148;2023-08-24T04:50:00;16.10;99.90
792;DHT22;379;49.022;12.148;2023-08-24T04:52:28;16.10;99.90
792;DHT22;379;49.022;12.148;2023-08-24T04:54:55;16.10;99.90
792;DHT22;379;49.022;12.148;2023-08-24T04:57:22;16.10;99.90
792;DHT22;379;49.022;12.148;2023-08-24T04:59:48;16.20;99.90
792;DHT22;379;49.022;12.148;2023-08-24T05:02:15;16.30;99.90
792;DHT22;379;49.022;12.148;2023-08-24T05:04:42;16.30;99.90
792;DHT22;379;49.022;12.148;2023-08-24T05:07:09;16.40;99.90
792;DHT22;379;49.022;12.148;2023-08-24T05:09:37;16.50;99.90
792;DHT22;379;49.022;12.148;2023-08-24T05:12:04;16.60;99.90
792;DHT22;379;49.022;12.148;2023-08-24T05:14:32;16.60;99.90
792;DHT22;379;49.022;12.148;2023-08-24T05:16:59;16.70;99.90
792;DHT22;379;49.022;12.148;2023-08-24T05:19:26;16.70;99.90
792;DHT22;379;49.022;12.148;2023-08-24T05:21:52;16.80;99.90
792;DHT22;379;49.022;12.148;2023-08-24T05:24:19;16.80;99.90
792;DHT22;379;49.022;12.148;2023-08-24T05:26:47;16.90;99.90
792;DHT22;379;49.022;12.148;2023-08-24T05:29:14;17.00;99.90
792;DHT22;379;49.022;12.148;2023-08-24T05:31:40;17.00;99.90
792;DHT22;379;49.022;12.148;2023-08-24T05:34:07;17.10;99.90
792;DHT22;379;49.022;12.148;2023-08-24T05:36:34;17.20;99.90
792;DHT22;379;49.022;12.148;2023-08-24T05:39:01;17.20;99.90
792;DHT22;379;49.022;12.148;2023-08-24T05:41:28;17.30;99.90
792;DHT22;379;49.022;12.148;2023-08-24T05:43:56;17.40;99.90
792;DHT22;379;49.022;12.148;2023-08-24T05:46:23;17.50;99.90
792;DHT22;379;49.022;12.148;2023-08-24T05:48:50;17.70;99.90
792;DHT22;379;49.022;12.148;2023-08-24T05:51:16;17.90;99.90
792;DHT22;379;49.022;12.148;2023-08-24T05:53:43;18.20;99.90
792;DHT22;379;49.022;12.148;2023-08-24T05:56:10;18.60;99.90
792;DHT22;379;49.022;12.148;2023-08-24T05:58:36;18.80;99.90
792;DHT22;379;49.022;12.148;2023-08-24T06:01:04;19.10;99.90
792;DHT22;379;49.022;12.148;2023-08-24T06:03:31;19.40;99.90
792;DHT22;379;49.022;12.148;2023-08-24T06:06:02;19.50;99.90
792;DHT22;379;49.022;12.148;2023-08-24T06:08:29;19.70;99.90
792;DHT22;379;49.022;12.148;2023-08-24T06:10:57;20.10;99.90
792;DHT22;379;49.022;12.148;2023-08-24T06:13:24;20.40;99.90
792;DHT22;379;49.022;12.148;2023-08-24T06:15:50;20.70;99.90
792;DHT22;379;49.022;12.148;2023-08-24T06:18:18;21.10;99.90
792;DHT22;379;49.022;12.148;2023-08-24T06:20:45;21.60;99.90
792;DHT22;379;49.022;12.148;2023-08-24T06:23:14;22.00;99.90
792;DHT22;379;49.022;12.148;2023-08-24T06:25:41;22.20;98.80
792;DHT22;379;49.022;12.148;2023-08-24T06:28:08;22.30;97.90
792;DHT22;379;49.022;12.148;2023-08-24T06:30:37;22.30;97.20
792;DHT22;379;49.022;12.148;2023-08-24T06:33:05;22.50;97.00
792;DHT22;379;49.022;12.148;2023-08-24T06:35:33;22.90;96.80
792;DHT22;379;49.022;12.148;2023-08-24T06:38:00;23.60;95.60
792;DHT22;379;49.022;12.148;2023-08-24T06:40:28;24.30;94.10
792;DHT22;379;49.022;12.148;2023-08-24T06:42:54;25.00;92.50
792;DHT22;379;49.022;12.148;2023-08-24T06:45:21;25.10;90.20
792;DHT22;379;49.022;12.148;2023-08-24T06:47:48;25.40;88.60
792;DHT22;379;49.022;12.148;2023-08-24T06:50:15;25.40;84.50
792;DHT22;379;49.022;12.148;2023-08-24T06:52:43;25.30;84.90
792;DHT22;379;49.022;12.148;2023-08-24T06:55:10;25.40;84.40
792;DHT22;379;49.022;12.148;2023-08-24T06:57:37;25.80;83.60
792;DHT22;379;49.022;12.148;2023-08-24T07:00:05;26.20;82.00
792;DHT22;379;49.022;12.148;2023-08-24T07:02:34;26.70;80.10
792;DHT22;379;49.022;12.148;2023-08-24T07:05:01;27.10;76.90
792;DHT22;379;49.022;12.148;2023-08-24T07:07:30;26.90;74.80
792;DHT22;379;49.022;12.148;2023-08-24T07:09:58;26.70;74.40
792;DHT22;379;49.022;12.148;2023-08-24T07:12:24;26.70;73.90
792;DHT22;379;49.022;12.148;2023-08-24T07:14:51;26.90;72.60
792;DHT22;379;49.022;12.148;2023-08-24T07:17:18;27.00;72.80
792;DHT22;379;49.022;12.148;2023-08-24T07:19:45;27.10;72.60
792;DHT22;379;49.022;12.148;2023-08-24T07:22:12;27.50;71.50
792;DHT22;379;49.022;12.148;2023-08-24T07:24:39;27.90;70.70
792;DHT22;379;49.022;12.148;2023-08-24T07:27:08;28.40;69.20
792;DHT22;379;49.022;12.148;2023-08-24T07:29:35;28.80;66.90
792;DHT22;379;49.022;12.148;2023-08-24T07:32:02;29.10;66.30
792;DHT22;379;49.022;12.148;2023-08-24T07:34:29;29.00;65.90
792;DHT22;379;49.022;12.148;2023-08-24T07:36:55;28.90;65.80
792;DHT22;379;49.022;12.148;2023-08-24T07:39:22;28.70;66.20
792;DHT22;379;49.022;12.148;2023-08-24T07:41:49;28.70;65.40
792;DHT22;379;49.022;12.148;2023-08-24T07:44:17;28.70;63.40
792;DHT22;379;49.022;12.148;2023-08-24T07:46:44;28.80;62.20
792;DHT22;379;49.022;12.148;2023-08-24T07:49:10;28.80;62.00
792;DHT22;379;49.022;12.148;2023-08-24T07:51:37;28.90;61.70
792;DHT22;379;49.022;12.148;2023-08-24T07:54:04;29.00;60.50
792;DHT22;379;49.022;12.148;2023-08-24T07:56:32;29.00;59.10
792;DHT22;379;49.022;12.148;2023-08-24T07:58:59;29.10;59.10
792;DHT22;379;49.022;12.148;2023-08-24T08:01:27;29.30;59.40
792;DHT22;379;49.022;12.148;2023-08-24T08:03:54;29.40;59.00
792;DHT22;379;49.022;12.148;2023-08-24T08:06:21;29.50;58.90
792;DHT22;379;49.022;12.148;2023-08-24T08:08:50;29.50;58.80
792;DHT22;379;49.022;12.148;2023-08-24T08:11:17;29.40;58.60
792;DHT22;379;49.022;12.148;2023-08-24T08:13:44;29.10;58.80
792;DHT22;379;49.022;12.148;2023-08-24T08:16:11;28.90;59.40
792;DHT22;379;49.022;12.148;2023-08-24T08:18:39;28.70;59.80
792;DHT22;379;49.022;12.148;2023-08-24T08:21:09;28.50;60.50
792;DHT22;379;49.022;12.148;2023-08-24T08:23:37;28.40;61.20
792;DHT22;379;49.022;12.148;2023-08-24T08:26:04;28.30;61.80
792;DHT22;379;49.022;12.148;2023-08-24T08:28:30;28.00;61.10
792;DHT22;379;49.022;12.148;2023-08-24T08:30:59;27.70;61.60
792;DHT22;379;49.022;12.148;2023-08-24T08:33:25;27.50;62.20
792;DHT22;379;49.022;12.148;2023-08-24T08:35:53;27.40;63.40
792;DHT22;379;49.022;12.148;2023-08-24T08:38:20;27.40;63.90
792;DHT22;379;49.022;12.148;2023-08-24T08:40:51;27.30;63.80
792;DHT22;379;49.022;12.148;2023-08-24T08:43:21;27.10;63.70
792;DHT22;379;49.022;12.148;2023-08-24T08:45:49;27.10;64.10
792;DHT22;379;49.022;12.148;2023-08-24T08:48:17;27.20;64.30
792;DHT22;379;49.022;12.148;2023-08-24T08:50:46;27.20;63.80
792;DHT22;379;49.022;12.148;2023-08-24T08:53:15;27.20;63.50
792;DHT22;379;49.022;12.148;2023-08-24T08:55:43;27.30;64.00
792;DHT22;379;49.022;12.148;2023-08-24T08:58:11;27.40;64.80
792;DHT22;379;49.022;12.148;2023-08-24T09:00:38;27.60;65.30
792;DHT22;379;49.022;12.148;2023-08-24T09:03:06;27.70;65.40
792;DHT22;379;49.022;12.148;2023-08-24T09:05:32;27.70;65.70
792;DHT22;379;49.022;12.148;2023-08-24T09:07:59;27.60;66.20
792;DHT22;379;49.022;12.148;2023-08-24T09:10:29;27.60;66.90
792;DHT22;379;49.022;12.148;2023-08-24T09:12:56;27.60;66.70
792;DHT22;379;49.022;12.148;2023-08-24T09:15:26;27.70;66.30
792;DHT22;379;49.022;12.148;2023-08-24T09:17:54;27.60;66.90
792;DHT22;379;49.022;12.148;2023-08-24T09:20:22;27.70;67.00
792;DHT22;379;49.022;12.148;2023-08-24T09:22:48;27.70;67.30
792;DHT22;379;49.022;12.148;2023-08-24T09:25:16;27.70;68.00
792;DHT22;379;49.022;12.148;2023-08-24T09:27:44;27.70;66.40
792;DHT22;379;49.022;12.148;2023-08-24T09:30:11;27.70;66.70
792;DHT22;379;49.022;12.148;2023-08-24T09:32:38;27.70;67.00
792;DHT22;379;49.022;12.148;2023-08-24T09:35:08;27.70;66.60
792;DHT22;379;49.022;12.148;2023-08-24T09:37:36;27.80;66.90
792;DHT22;379;49.022;12.148;2023-08-24T09:40:05;27.90;64.80
792;DHT22;379;49.022;12.148;2023-08-24T09:42:37;27.90;65.00
792;DHT22;379;49.022;12.148;2023-08-24T09:45:08;27.90;65.90
792;DHT22;379;49.022;12.148;2023-08-24T09:47:37;27.90;65.60
792;DHT22;379;49.022;12.148;2023-08-24T09:50:05;27.90;62.50
792;DHT22;379;49.022;12.148;2023-08-24T09:52:33;28.00;61.70
792;DHT22;379;49.022;12.148;2023-08-24T09:55:02;28.00;62.40
792;DHT22;379;49.022;12.148;2023-08-24T09:57:33;28.00;64.40
792;DHT22;379;49.022;12.148;2023-08-24T10:00:02;28.10;64.80
792;DHT22;379;49.022;12.148;2023-08-24T10:02:37;28.20;64.90
792;DHT22;379;49.022;12.148;2023-08-24T10:05:06;28.30;64.90
792;DHT22;379;49.022;12.148;2023-08-24T10:07:35;28.30;64.60
792;DHT22;379;49.022;12.148;2023-08-24T10:10:04;28.30;64.10
792;DHT22;379;49.022;12.148;2023-08-24T10:12:39;28.30;62.60
792;DHT22;379;49.022;12.148;2023-08-24T10:15:08;28.40;63.40
792;DHT22;379;49.022;12.148;2023-08-24T10:17:39;28.40;63.60
792;DHT22;379;49.022;12.148;2023-08-24T10:20:07;28.40;59.30
792;DHT22;379;49.022;12.148;2023-08-24T10:22:37;28.40;61.10
792;DHT22;379;49.022;12.148;2023-08-24T10:25:07;28.50;61.30
792;DHT22;379;49.022;12.148;2023-08-24T10:27:35;28.50;61.60
792;DHT22;379;49.022;12.148;2023-08-24T10:30:02;28.60;60.40
792;DHT22;379;49.022;12.148;2023-08-24T10:32:29;28.70;60.00
792;DHT22;379;49.022;12.148;2023-08-24T10:34:58;28.80;60.00
792;DHT22;379;49.022;12.148;2023-08-24T10:37:26;28.80;60.00
792;DHT22;379;49.022;12.148;2023-08-24T10:39:53;28.80;60.00
792;DHT22;379;49.022;12.148;2023-08-24T10:42:20;28.90;60.10
792;DHT22;379;49.022;12.148;2023-08-24T10:44:47;28.90;59.90
792;DHT22;379;49.022;12.148;2023-08-24T10:47:16;29.00;59.40
792;DHT22;379;49.022;12.148;2023-08-24T10:49:45;29.00;58.50
792;DHT22;379;49.022;12.148;2023-08-24T10:52:25;29.10;58.00
792;DHT22;379;49.022;12.148;2023-08-24T10:54:53;29.20;58.30
792;DHT22;379;49.022;12.148;2023-08-24T10:57:22;29.40;57.50
792;DHT22;379;49.022;12.148;2023-08-24T11:00:06;29.50;56.90
792;DHT22;379;49.022;12.148;2023-08-24T11:02:44;29.60;57.10
792;DHT22;379;49.022;12.148;2023-08-24T11:05:18;29.80;55.90
792;DHT22;379;49.022;12.148;2023-08-24T11:07:58;30.00;55.70
792;DHT22;379;49.022;12.148;2023-08-24T11:10:31;30.40;54.60
792;DHT22;379;49.022;12.148;2023-08-24T11:13:05;30.60;53.90
792;DHT22;379;49.022;12.148;2023-08-24T11:15:33;30.80;53.70
792;DHT22;379;49.022;12.148;2023-08-24T11:18:14;30.80;52.70
792;DHT22;379;49.022;12.148;2023-08-24T11:20:42;30.70;50.80
792;DHT22;379;49.022;12.148;2023-08-24T11:23:12;30.50;50.80
792;DHT22;379;49.022;12.148;2023-08-24T11:25:38;30.30;50.20
792;DHT22;379;49.022;12.148;2023-08-24T11:28:05;30.20;51.90
792;DHT22;379;49.022;12.148;2023-08-24T11:30:32;30.10;50.10
792;DHT22;379;49.022;12.148;2023-08-24T11:32:59;30.00;50.60
792;DHT22;379;49.022;12.148;2023-08-24T11:35:26;29.90;52.20
792;DHT22;379;49.022;12.148;2023-08-24T11:37:53;29.80;53.40
792;DHT22;379;49.022;12.148;2023-08-24T11:40:22;29.80;53.50
792;DHT22;379;49.022;12.148;2023-08-24T11:42:53;29.90;53.60
792;DHT22;379;49.022;12.148;2023-08-24T11:45:20;29.90;53.70
792;DHT22;379;49.022;12.148;2023-08-24T11:47:47;29.90;53.50
792;DHT22;379;49.022;12.148;2023-08-24T11:50:14;30.00;54.20
792;DHT22;379;49.022;12.148;2023-08-24T11:52:41;30.00;54.60
792;DHT22;379;49.022;12.148;2023-08-24T11:55:09;30.00;54.00
792;DHT22;379;49.022;12.148;2023-08-24T11:57:37;30.00;49.80
792;DHT22;379;49.022;12.148;2023-08-24T12:00:05;30.00;50.20
792;DHT22;379;49.022;12.148;2023-08-24T12:02:32;29.90;49.70
792;DHT22;379;49.022;12.148;2023-08-24T12:04:59;29.90;50.00
792;DHT22;379;49.022;12.148;2023-08-24T12:07:27;29.80;50.10
792;DHT22;379;49.022;12.148;2023-08-24T12:09:54;29.90;50.20
792;DHT22;379;49.022;12.148;2023-08-24T12:12:21;30.00;50.30
792;DHT22;379;49.022;12.148;2023-08-24T12:14:50;30.10;50.00
792;DHT22;379;49.022;12.148;2023-08-24T12:17:17;30.10;51.40
792;DHT22;379;49.022;12.148;2023-08-24T12:19:44;30.20;50.40
792;DHT22;379;49.022;12.148;2023-08-24T12:22:14;30.30;50.30
792;DHT22;379;49.022;12.148;2023-08-24T12:24:43;30.40;50.10
792;DHT22;379;49.022;12.148;2023-08-24T12:27:17;30.40;49.40
792;DHT22;379;49.022;12.148;2023-08-24T12:29:45;30.50;48.00
792;DHT22;379;49.022;12.148;2023-08-24T12:32:13;30.50;45.70
792;DHT22;379;49.022;12.148;2023-08-24T12:34:41;30.50;46.10
792;DHT22;379;49.022;12.148;2023-08-24T12:37:08;30.60;49.40
792;DHT22;379;49.022;12.148;2023-08-24T12:39:35;30.70;48.00
792;DHT22;379;49.022;12.148;2023-08-24T12:42:03;30.80;48.40
792;DHT22;379;49.022;12.148;2023-08-24T12:44:29;30.90;48.60
792;DHT22;379;49.022;12.148;2023-08-24T12:46:56;31.10;48.90
792;DHT22;379;49.022;12.148;2023-08-24T12:49:24;31.10;46.80
792;DHT22;379;49.022;12.148;2023-08-24T12:51:51;31.20;46.80
792;DHT22;379;49.022;12.148;2023-08-24T12:54:18;31.30;45.90
792;DHT22;379;49.022;12.148;2023-08-24T12:56:44;31.40;46.60
792;DHT22;379;49.022;12.148;2023-08-24T12:59:11;31.50;48.00
792;DHT22;379;49.022;12.148;2023-08-24T13:01:38;31.60;47.30
792;DHT22;379;49.022;12.148;2023-08-24T13:04:05;31.60;47.40
792;DHT22;379;49.022;12.148;2023-08-24T13:06:33;31.70;47.60
792;DHT22;379;49.022;12.148;2023-08-24T13:09:00;31.60;47.10
792;DHT22;379;49.022;12.148;2023-08-24T13:11:27;31.60;47.50
792;DHT22;379;49.022;12.148;2023-08-24T13:13:54;31.60;47.60
792;DHT22;379;49.022;12.148;2023-08-24T13:16:20;31.60;46.90
792;DHT22;379;49.022;12.148;2023-08-24T13:18:47;31.70;46.70
792;DHT22;379;49.022;12.148;2023-08-24T13:21:14;31.80;46.90
792;DHT22;379;49.022;12.148;2023-08-24T13:23:42;31.90;47.20
792;DHT22;379;49.022;12.148;2023-08-24T13:26:17;31.90;47.80
792;DHT22;379;49.022;12.148;2023-08-24T13:28:44;31.90;48.10
792;DHT22;379;49.022;12.148;2023-08-24T13:31:11;31.90;47.60
792;DHT22;379;49.022;12.148;2023-08-24T13:33:38;31.90;47.60
792;DHT22;379;49.022;12.148;2023-08-24T13:36:05;31.90;47.10
792;DHT22;379;49.022;12.148;2023-08-24T13:38:31;31.80;46.30
792;DHT22;379;49.022;12.148;2023-08-24T13:40:59;31.70;46.10
792;DHT22;379;49.022;12.148;2023-08-24T13:43:26;31.80;46.40
792;DHT22;379;49.022;12.148;2023-08-24T13:45:53;31.80;46.50
792;DHT22;379;49.022;12.148;2023-08-24T13:48:20;31.80;46.60
792;DHT22;379;49.022;12.148;2023-08-24T13:50:50;31.70;46.50
792;DHT22;379;49.022;12.148;2023-08-24T13:53:17;31.70;46.60
792;DHT22;379;49.022;12.148;2023-08-24T13:55:44;31.70;47.00
792;DHT22;379;49.022;12.148;2023-08-24T13:58:12;31.60;47.60
792;DHT22;379;49.022;12.148;2023-08-24T14:00:39;31.60;48.00
792;DHT22;379;49.022;12.148;2023-08-24T14:03:05;31.50;48.20
792;DHT22;379;49.022;12.148;2023-08-24T14:05:33;31.40;47.80
792;DHT22;379;49.022;12.148;2023-08-24T14:08:04;31.40;48.40
792;DHT22;379;49.022;12.148;2023-08-24T14:10:31;31.40;49.20
792;DHT22;379;49.022;12.148;2023-08-24T14:12:58;31.40;49.70
792;DHT22;379;49.022;12.148;2023-08-24T14:15:26;31.40;50.40
792;DHT22;379;49.022;12.148;2023-08-24T14:17:53;31.40;51.10
792;DHT22;379;49.022;12.148;2023-08-24T14:20:20;31.40;51.30
792;DHT22;379;49.022;12.148;2023-08-24T14:22:47;31.40;52.50
792;DHT22;379;49.022;12.148;2023-08-24T14:25:14;31.40;51.70
792;DHT22;379;49.022;12.148;2023-08-24T14:27:41;31.30;51.30
792;DHT22;379;49.022;12.148;2023-08-24T14:30:08;31.30;51.30
792;DHT22;379;49.022;12.148;2023-08-24T14:32:37;31.30;51.30
792;DHT22;379;49.022;12.148;2023-08-24T14:35:04;31.40;51.50
792;DHT22;379;49.022;12.148;2023-08-24T14:37:31;31.40;51.90
792;DHT22;379;49.022;12.148;2023-08-24T14:39:59;31.40;51.40
792;DHT22;379;49.022;12.148;2023-08-24T14:42:25;31.30;51.30
792;DHT22;379;49.022;12.148;2023-08-24T14:44:52;31.30;52.10
792;DHT22;379;49.022;12.148;2023-08-24T14:47:19;31.30;52.20
792;DHT22;379;49.022;12.148;2023-08-24T14:49:47;31.20;52.00
792;DHT22;379;49.022;12.148;2023-08-24T14:52:14;31.10;51.00
792;DHT22;379;49.022;12.148;2023-08-24T14:54:41;30.90;50.80
792;DHT22;379;49.022;12.148;2023-08-24T14:57:07;30.80;50.50
792;DHT22;379;49.022;12.148;2023-08-24T14:59:35;30.70;51.30
792;DHT22;379;49.022;12.148;2023-08-24T15:02:02;30.60;51.80
792;DHT22;379;49.022;12.148;2023-08-24T15:04:28;30.60;51.80
792;DHT22;379;49.022;12.148;2023-08-24T15:06:57;30.60;52.30
792;DHT22;379;49.022;12.148;2023-08-24T15:09:24;30.60;52.50
792;DHT22;379;49.022;12.148;2023-08-24T15:11:50;30.80;52.90
792;DHT22;379;49.022;12.148;2023-08-24T15:14:17;30.90;53.00
792;DHT22;379;49.022;12.148;2023-08-24T15:16:44;31.10;53.70
792;DHT22;379;49.022;12.148;2023-08-24T15:19:10;31.20;53.90
792;DHT22;379;49.022;12.148;2023-08-24T15:21:37;31.20;53.70
792;DHT22;379;49.022;12.148;2023-08-24T15:24:05;31.20;52.30
792;DHT22;379;49.022;12.148;2023-08-24T15:26:32;31.20;52.30
792;DHT22;379;49.022;12.148;2023-08-24T15:29:11;31.10;52.10
792;DHT22;379;49.022;12.148;2023-08-24T15:31:38;31.10;51.80
792;DHT22;379;49.022;12.148;2023-08-24T15:34:05;31.10;51.70
792;DHT22;379;49.022;12.148;2023-08-24T15:36:32;31.20;51.70
792;DHT22;379;49.022;12.148;2023-08-24T15:38:58;31.30;51.50
792;DHT22;379;49.022;12.148;2023-08-24T15:41:26;31.40;51.40
792;DHT22;379;49.022;12.148;2023-08-24T15:43:53;31.50;51.00
792;DHT22;379;49.022;12.148;2023-08-24T15:46:20;31.60;50.70
792;DHT22;379;49.022;12.148;2023-08-24T15:48:47;31.80;49.70
792;DHT22;379;49.022;12.148;2023-08-24T15:51:16;31.90;49.60
792;DHT22;379;49.022;12.148;2023-08-24T15:53:43;32.00;49.00
792;DHT22;379;49.022;12.148;2023-08-24T15:56:10;32.00;49.00
792;DHT22;379;49.022;12.148;2023-08-24T15:58:38;31.90;49.20
792;DHT22;379;49.022;12.148;2023-08-24T16:01:05;31.90;49.30
792;DHT22;379;49.022;12.148;2023-08-24T16:03:31;31.90;49.30
792;DHT22;379;49.022;12.148;2023-08-24T16:05:59;31.90;49.70
792;DHT22;379;49.022;12.148;2023-08-24T16:08:25;31.70;49.90
792;DHT22;379;49.022;12.148;2023-08-24T16:10:55;31.70;49.80
792;DHT22;379;49.022;12.148;2023-08-24T16:13:22;31.50;50.10
792;DHT22;379;49.022;12.148;2023-08-24T16:15:50;31.30;50.40
792;DHT22;379;49.022;12.148;2023-08-24T16:18:21;31.20;50.60
792;DHT22;379;49.022;12.148;2023-08-24T16:20:48;31.00;50.90